Time;durP1;ratioP1;P1;durP2;ratioP2;P2;SDS_P1;SDS_P2;PMS_P1;PMS_P2;Temp;Humidity;BMP_temperature;BMP_pressure;BME280_temperature;BME280_humidity;BME280_pressure;Samples;Min_cycle;Max_cycle;Signal;HPM_P1;HPM_P2
2022/05/26 00:01:10;;;;;;;10.20;5.17;;;13.50;87.40;;;;;;5053384;28;20182;-86
2022/05/26 00:03:38;;;;;;;6.90;4.57;;;13.50;87.20;;;;;;5035464;28;20227;-86
2022/05/26 00:06:06;;;;;;;6.73;5.10;;;13.50;86.90;;;;;;5053596;28;20172;-85
2022/05/26 00:08:32;;;;;;;10.53;5.97;;;13.60;87.30;;;;;;5035183;28;20186;-85
2022/05/26 00:10:58;;;;;;;12.03;5.47;;;13.60;87.10;;;;;;5035388;28;20267;-85
2022/05/26 00:13:24;;;;;;;10.47;5.30;;;13.60;87.10;;;;;;5053033;28;20283;-86
2022/05/26 00:15:49;;;;;;;6.33;5.70;;;13.60;87.10;;;;;;5053123;28;20168;-85
2022/05/26 00:18:15;;;;;;;7.33;5.67;;;13.70;87.00;;;;;;5035135;28;20175;-85
2022/05/26 00:20:41;;;;;;;11.17;6.03;;;13.70;86.90;;;;;;5053108;28;20591;-86
2022/05/26 00:23:06;;;;;;;11.10;5.77;;;13.70;87.00;;;;;;5035224;28;20203;-87
2022/05/26 00:25:32;;;;;;;11.53;6.27;;;13.70;87.00;;;;;;5035089;28;20563;-87
2022/05/26 00:27:57;;;;;;;10.87;5.50;;;13.70;86.90;;;;;;5053395;28;20186;-87
2022/05/26 00:30:23;;;;;;;13.30;7.63;;;13.70;87.10;;;;;;5038975;28;20240;-89
2022/05/26 00:32:49;;;;;;;9.00;6.50;;;13.70;87.00;;;;;;5041703;28;20211;-89
2022/05/26 00:35:15;;;;;;;8.93;6.23;;;13.70;86.90;;;;;;5039257;28;20182;-90
2022/05/26 00:37:43;;;;;;;12.80;6.40;;;13.60;86.80;;;;;;5023532;28;20641;-90
2022/05/26 00:40:10;;;;;;;14.23;6.63;;;13.70;87.10;;;;;;5040704;28;20647;-88
2022/05/26 00:42:36;;;;;;;10.40;7.10;;;13.70;87.20;;;;;;5038991;28;20196;-89
2022/05/26 00:45:03;;;;;;;12.83;6.83;;;13.70;87.20;;;;;;5039202;28;20183;-90
2022/05/26 00:47:33;;;;;;;11.27;7.50;;;13.70;87.20;;;;;;5056873;28;20172;-88
2022/05/26 00:50:03;;;;;;;10.23;7.57;;;13.70;87.10;;;;;;5037808;28;20642;-88
2022/05/26 00:52:47;;;;;;;12.93;7.10;;;13.80;87.10;;;;;;5055827;28;20215;-88
2022/05/26 00:55:26;;;;;;;10.13;7.07;;;13.80;87.10;;;;;;5037804;28;20309;-89
2022/05/26 00:58:04;;;;;;;11.67;7.77;;;13.80;87.20;;;;;;5037862;28;20596;-89
2022/05/26 01:00:33;;;;;;;10.80;7.00;;;13.80;87.30;;;;;;5040400;28;20176;-88
2022/05/26 01:03:23;;;;;;;10.20;7.60;;;13.80;87.10;;;;;;5059316;28;20192;-88
2022/05/26 01:05:58;;;;;;;11.87;6.80;;;13.70;87.10;;;;;;5041942;28;20187;-88
2022/05/26 01:08:33;;;;;;;12.93;7.77;;;13.80;87.30;;;;;;5041357;28;20187;-88
2022/05/26 01:10:59;;;;;;;12.60;8.37;;;13.70;87.20;;;;;;5040938;28;20176;-89
2022/05/26 01:13:25;;;;;;;20.67;7.90;;;13.70;87.20;;;;;;5041057;28;20218;-88
2022/05/26 01:16:09;;;;;;;15.77;8.30;;;13.60;87.30;;;;;;5040970;28;20176;-89
2022/05/26 01:18:52;;;;;;;17.77;8.47;;;13.60;87.40;;;;;;5058752;28;20168;-88
2022/05/26 01:21:31;;;;;;;10.43;7.57;;;13.60;87.30;;;;;;5040978;28;20173;-88
2022/05/26 01:24:15;;;;;;;16.37;8.87;;;13.60;87.60;;;;;;5040856;28;20178;-88
2022/05/26 01:27:02;;;;;;;13.70;8.50;;;13.60;87.60;;;;;;5040239;28;20200;-88
2022/05/26 01:30:02;;;;;;;12.57;8.87;;;13.60;87.70;;;;;;5040843;28;20179;-87
2022/05/26 01:32:39;;;;;;;13.60;8.67;;;13.60;87.80;;;;;;5040952;28;20244;-88
2022/05/26 01:35:18;;;;;;;10.70;8.17;;;13.70;87.70;;;;;;5058299;28;20243;-88
2022/05/26 01:37:56;;;;;;;16.90;8.07;;;13.70;87.80;;;;;;5059469;28;20692;-88
2022/05/26 01:41:02;;;;;;;17.50;8.90;;;13.80;87.60;;;;;;5040953;28;20218;-88
2022/05/26 01:43:55;;;;;;;16.40;8.87;;;13.70;87.50;;;;;;5040136;28;20211;-88
2022/05/26 01:46:39;;;;;;;12.20;9.43;;;13.70;87.50;;;;;;5058793;28;20672;-88
2022/05/26 01:49:17;;;;;;;16.80;9.87;;;13.80;87.60;;;;;;5058650;28;20163;-87
2022/05/26 01:52:07;;;;;;;15.23;9.27;;;13.80;87.40;;;;;;5040527;28;20219;-88
2022/05/26 01:55:05;;;;;;;13.03;9.60;;;13.80;87.40;;;;;;5039576;28;20669;-88
2022/05/26 01:57:52;;;;;;;15.77;8.87;;;13.80;87.30;;;;;;4997239;28;20658;-87
2022/05/26 02:00:20;;;;;;;19.47;8.93;;;13.70;87.40;;;;;;5040210;28;20234;-87
2022/05/26 02:03:04;;;;;;;12.23;8.60;;;13.80;87.30;;;;;;5040774;28;20196;-88
2022/05/26 02:05:35;;;;;;;16.17;9.00;;;13.80;87.20;;;;;;5041009;28;20179;-89
2022/05/26 02:08:19;;;;;;;14.07;9.63;;;13.80;87.40;;;;;;5040812;28;20222;-88
2022/05/26 02:10:55;;;;;;;13.80;9.87;;;13.80;87.30;;;;;;5057240;28;20160;-87
2022/05/26 02:13:29;;;;;;;12.87;8.83;;;13.80;87.30;;;;;;5057808;28;20253;-88
2022/05/26 02:16:02;;;;;;;15.73;10.23;;;13.80;87.10;;;;;;5040448;28;20172;-88
2022/05/26 02:18:39;;;;;;;14.73;8.67;;;13.80;87.30;;;;;;5039620;28;20316;-88
2022/05/26 02:21:12;;;;;;;16.30;9.40;;;13.80;87.30;;;;;;5039827;28;20183;-88
2022/05/26 02:23:55;;;;;;;16.73;9.70;;;13.80;87.20;;;;;;5057311;28;20199;-88
2022/05/26 02:26:20;;;;;;;19.10;9.57;;;13.80;87.40;;;;;;5039295;28;20729;-87
2022/05/26 02:31:40;;;;;;;14.47;9.33;;;13.80;87.40;;;;;;5034154;28;20736;-87
2022/05/26 02:34:06;;;;;;;14.43;9.57;;;13.80;87.50;;;;;;5039629;28;20634;-89
2022/05/26 02:36:34;;;;;;;17.00;9.63;;;13.80;87.30;;;;;;5040198;28;20176;-88
2022/05/26 02:38:59;;;;;;;19.67;9.97;;;13.80;87.40;;;;;;5039937;28;20225;-89
2022/05/26 02:41:26;;;;;;;22.33;10.50;;;13.80;87.60;;;;;;5039749;28;20184;-89
2022/05/26 02:43:52;;;;;;;13.33;9.00;;;13.80;87.70;;;;;;5040558;28;20176;-89
2022/05/26 02:46:23;;;;;;;17.97;8.77;;;13.80;87.60;;;;;;5057793;28;20222;-89
2022/05/26 02:49:09;;;;;;;15.43;9.47;;;13.80;87.70;;;;;;5040135;28;20182;-89
2022/05/26 02:52:02;;;;;;;17.30;9.73;;;13.80;87.80;;;;;;5041425;28;20172;-88
2022/05/26 02:54:57;;;;;;;19.87;9.60;;;13.80;87.80;;;;;;5036795;28;20188;-89
2022/05/26 02:57:44;;;;;;;17.77;9.23;;;13.80;87.70;;;;;;5036471;28;20180;-89
2022/05/26 03:00:27;;;;;;;15.97;10.50;;;13.70;87.90;;;;;;5036447;28;20259;-90
2022/05/26 03:03:09;;;;;;;16.97;10.07;;;13.70;87.70;;;;;;5036378;28;20199;-89
2022/05/26 03:06:00;;;;;;;20.10;10.17;;;13.70;87.90;;;;;;5036333;28;20210;-90
2022/05/26 03:08:29;;;;;;;18.70;10.27;;;13.60;87.80;;;;;;5036459;28;20172;-89
2022/05/26 03:11:04;;;;;;;15.63;10.50;;;13.60;88.10;;;;;;5054249;28;20184;-89
2022/05/26 03:13:30;;;;;;;19.07;10.93;;;13.70;88.10;;;;;;5036088;28;20207;-89
2022/05/26 03:15:56;;;;;;;14.67;10.87;;;13.70;87.90;;;;;;5053995;28;20173;-89
2022/05/26 03:18:21;;;;;;;18.87;10.07;;;13.70;87.90;;;;;;5036390;28;20179;-89
2022/05/26 03:20:46;;;;;;;13.50;9.87;;;13.70;87.80;;;;;;5036067;28;20283;-89
2022/05/26 03:23:13;;;;;;;14.17;9.43;;;13.70;87.50;;;;;;5053304;28;20191;-89
2022/05/26 03:25:43;;;;;;;21.23;10.53;;;13.70;87.40;;;;;;5035773;28;20188;-89
2022/05/26 03:28:09;;;;;;;23.17;12.00;;;13.70;87.40;;;;;;5036146;28;20179;-89
2022/05/26 03:30:36;;;;;;;13.23;10.03;;;13.70;87.40;;;;;;5035860;28;20179;-89
2022/05/26 03:33:02;;;;;;;19.67;9.60;;;13.70;87.40;;;;;;5035792;28;20242;-89
2022/05/26 03:40:56;;;;;;;19.90;10.33;;;13.80;87.70;;;;;;5054230;28;20186;-89
2022/05/26 03:43:35;;;;;;;13.73;10.23;;;13.80;87.50;;;;;;5053453;28;20673;-89
2022/05/26 03:46:02;;;;;;;18.67;10.97;;;13.80;87.50;;;;;;5035731;28;20172;-88
2022/05/26 03:48:28;;;;;;;22.50;11.00;;;13.80;87.60;;;;;;5035839;28;20638;-88
2022/05/26 03:50:53;;;;;;;19.63;10.47;;;13.80;87.40;;;;;;5053417;28;20206;-90
2022/05/26 03:53:19;;;;;;;16.47;10.20;;;13.80;87.60;;;;;;5053241;28;20236;-89
2022/05/26 03:55:45;;;;;;;19.90;10.53;;;13.80;87.70;;;;;;5053266;28;20172;-89
2022/05/26 03:58:10;;;;;;;23.40;10.53;;;13.80;87.70;;;;;;5053580;28;20200;-89
2022/05/26 04:00:37;;;;;;;24.70;10.67;;;13.80;87.60;;;;;;5035498;28;20257;-90
2022/05/26 04:03:03;;;;;;;16.93;10.63;;;13.80;87.70;;;;;;5035369;28;20569;-89
2022/05/26 04:05:29;;;;;;;21.67;10.53;;;13.80;87.60;;;;;;5053597;28;20219;-89
2022/05/26 04:07:54;;;;;;;24.20;10.77;;;13.80;87.70;;;;;;5035568;28;20642;-89
2022/05/26 04:10:20;;;;;;;24.97;9.90;;;13.70;87.80;;;;;;5053429;28;20638;-89
2022/05/26 04:12:45;;;;;;;24.33;10.43;;;13.70;87.90;;;;;;5035121;28;20294;-89
2022/05/26 04:15:13;;;;;;;18.40;10.07;;;13.80;87.90;;;;;;5053119;28;20698;-88
2022/05/26 04:17:39;;;;;;;24.67;11.37;;;13.80;87.90;;;;;;5053102;28;20199;-89
2022/05/26 04:20:07;;;;;;;18.30;10.47;;;13.80;87.90;;;;;;5035337;28;20199;-89
2022/05/26 04:22:32;;;;;;;18.97;10.37;;;13.80;87.80;;;;;;5035222;28;20231;-89
2022/05/26 04:24:59;;;;;;;22.70;10.80;;;13.80;87.60;;;;;;5052931;28;20179;-89
2022/05/26 04:27:27;;;;;;;14.43;9.23;;;13.80;87.60;;;;;;5035822;28;20172;-89
2022/05/26 04:29:54;;;;;;;19.97;10.80;;;13.80;87.50;;;;;;5035314;28;20172;-89
2022/05/26 04:32:21;;;;;;;27.40;10.60;;;13.80;87.50;;;;;;5035036;28;20575;-89
2022/05/26 04:34:48;;;;;;;20.10;9.80;;;13.80;87.50;;;;;;5036313;28;20288;-89
2022/05/26 04:37:15;;;;;;;17.70;8.87;;;13.80;87.50;;;;;;5038981;28;20207;-90
2022/05/26 04:39:40;;;;;;;22.53;10.20;;;13.80;87.30;;;;;;5039034;28;20634;-89
2022/05/26 04:42:07;;;;;;;25.70;9.37;;;13.90;87.30;;;;;;5056904;28;20272;-90
2022/05/26 04:44:35;;;;;;;22.80;10.30;;;13.90;87.30;;;;;;5038936;28;20184;-89
2022/05/26 04:47:01;;;;;;;22.30;8.20;;;13.90;87.30;;;;;;5056952;28;20179;-89
2022/05/26 04:49:28;;;;;;;21.63;8.50;;;13.90;87.40;;;;;;5056721;28;20176;-90
2022/05/26 04:51:54;;;;;;;23.53;8.57;;;13.90;87.30;;;;;;5056899;28;20207;-89
2022/05/26 04:54:20;;;;;;;20.57;7.57;;;14.00;87.00;;;;;;5038660;28;20621;-89
2022/05/26 04:56:45;;;;;;;19.57;8.10;;;14.00;86.90;;;;;;5038960;28;20172;-89
2022/05/26 04:59:11;;;;;;;17.03;8.17;;;14.00;87.00;;;;;;5038642;28;20234;-88
2022/05/26 05:01:37;;;;;;;23.33;8.23;;;14.00;87.00;;;;;;5056441;28;20184;-88
2022/05/26 05:04:03;;;;;;;16.90;7.37;;;14.00;87.20;;;;;;5056507;28;20176;-89
2022/05/26 05:06:28;;;;;;;21.87;7.70;;;14.00;86.90;;;;;;5056269;28;20179;-89
2022/05/26 05:08:54;;;;;;;22.67;8.10;;;14.10;86.70;;;;;;5038545;28;20657;-88
2022/05/26 05:11:20;;;;;;;21.70;7.77;;;14.00;86.60;;;;;;5056212;28;20180;-88
2022/05/26 05:13:45;;;;;;;21.13;8.03;;;14.00;86.80;;;;;;5056182;28;20606;-89
2022/05/26 05:16:21;;;;;;;21.27;8.20;;;14.00;86.80;;;;;;5056313;28;20172;-89
2022/05/26 05:18:47;;;;;;;18.83;7.13;;;13.90;86.90;;;;;;5038389;28;20164;-89
2022/05/26 05:21:17;;;;;;;18.57;7.87;;;14.00;86.80;;;;;;5038393;28;20591;-89
2022/05/26 05:23:46;;;;;;;24.60;6.83;;;14.00;86.40;;;;;;5056732;28;20199;-89
2022/05/26 05:26:16;;;;;;;25.40;7.30;;;14.10;86.30;;;;;;5038047;28;20198;-89
2022/05/26 05:28:49;;;;;;;22.77;6.80;;;14.20;86.20;;;;;;5056301;28;20230;-89
2022/05/26 05:31:20;;;;;;;24.03;6.70;;;14.30;86.20;;;;;;5038098;28;20172;-88
2022/05/26 05:33:50;;;;;;;13.83;5.73;;;14.30;85.70;;;;;;5038888;28;20290;-89
2022/05/26 05:36:20;;;;;;;17.13;6.47;;;14.40;85.50;;;;;;5056362;28;20525;-88
2022/05/26 05:38:46;;;;;;;14.73;5.47;;;14.40;84.80;;;;;;5037873;28;20178;-89
2022/05/26 05:41:12;;;;;;;18.23;5.33;;;14.50;84.90;;;;;;5037982;28;20168;-89
2022/05/26 05:43:38;;;;;;;21.43;5.67;;;14.50;84.80;;;;;;5055717;28;20253;-89
2022/05/26 05:46:04;;;;;;;21.37;6.53;;;14.50;84.20;;;;;;5054746;28;20204;-89
2022/05/26 05:48:30;;;;;;;16.73;6.10;;;14.60;84.30;;;;;;5037896;28;20183;-89
2022/05/26 05:50:56;;;;;;;17.87;6.10;;;14.60;84.60;;;;;;5038245;28;20176;-88
2022/05/26 05:53:21;;;;;;;15.83;5.90;;;14.60;84.00;;;;;;5037639;28;20204;-88
2022/05/26 05:55:47;;;;;;;21.33;6.07;;;14.70;84.60;;;;;;5055810;28;20168;-88
2022/05/26 05:58:13;;;;;;;19.93;5.57;;;14.70;83.90;;;;;;5037788;28;20267;-90
2022/05/26 06:00:40;;;;;;;16.27;5.40;;;14.80;84.00;;;;;;5037559;28;20602;-90
2022/05/26 06:03:06;;;;;;;21.17;5.80;;;14.80;83.40;;;;;;5037854;28;20732;-90
2022/05/26 06:05:32;;;;;;;17.37;5.80;;;14.90;83.60;;;;;;5055264;28;20173;-89
2022/05/26 06:07:58;;;;;;;18.97;5.57;;;14.80;83.00;;;;;;5037525;28;20204;-89
2022/05/26 06:10:24;;;;;;;18.53;5.00;;;14.80;83.30;;;;;;5037285;28;20229;-89
2022/05/26 06:12:50;;;;;;;17.77;5.10;;;14.80;83.30;;;;;;5037310;28;20227;-90
2022/05/26 06:15:15;;;;;;;23.07;6.10;;;14.80;83.60;;;;;;5037333;28;20207;-90
2022/05/26 06:17:42;;;;;;;20.70;4.77;;;14.90;83.40;;;;;;5055408;28;20199;-90
2022/05/26 06:20:10;;;;;;;19.73;5.23;;;15.00;83.20;;;;;;5055381;28;20247;-89
2022/05/26 06:22:39;;;;;;;19.80;4.77;;;14.90;82.50;;;;;;5037204;28;20203;-89
2022/05/26 06:25:06;;;;;;;20.77;4.57;;;14.80;82.30;;;;;;5036929;28;20179;-89
2022/05/26 06:30:17;;;;;;;17.43;3.40;;;14.80;80.50;;;;;;5055474;28;20179;-89
2022/05/26 06:38:13;;;;;;;16.70;3.67;;;14.90;79.50;;;;;;5054880;28;20159;-89
2022/05/26 06:40:38;;;;;;;9.97;2.50;;;15.10;80.00;;;;;;5037144;28;20198;-89
2022/05/26 06:43:04;;;;;;;11.33;3.10;;;15.20;79.70;;;;;;5037395;28;20192;-89
2022/05/26 06:45:30;;;;;;;10.87;2.70;;;15.20;78.10;;;;;;5037503;28;20172;-89
2022/05/26 06:47:56;;;;;;;8.00;2.33;;;15.30;75.40;;;;;;5055011;28;20188;-90
2022/05/26 06:50:22;;;;;;;12.50;2.57;;;15.30;74.50;;;;;;5037081;28;20211;-89
2022/05/26 06:52:47;;;;;;;13.70;2.93;;;15.40;75.60;;;;;;5036920;28;20677;-88
2022/05/26 06:55:13;;;;;;;11.97;3.53;;;15.50;76.00;;;;;;5036794;28;20794;-92
2022/05/26 06:57:39;;;;;;;11.77;2.57;;;15.40;74.10;;;;;;5036588;28;20172;-88
2022/05/26 07:00:06;;;;;;;8.43;2.10;;;15.20;74.30;;;;;;5036640;28;20172;-88
2022/05/26 07:02:32;;;;;;;12.27;2.40;;;15.20;74.10;;;;;;5036482;28;20685;-88
2022/05/26 07:04:58;;;;;;;11.23;2.47;;;15.30;73.40;;;;;;5036313;28;20214;-89
2022/05/26 07:07:25;;;;;;;7.63;2.00;;;15.30;72.00;;;;;;5036381;28;20270;-89
2022/05/26 07:09:53;;;;;;;12.07;2.13;;;15.40;71.40;;;;;;5036355;28;20176;-89
2022/05/26 07:12:19;;;;;;;9.13;2.13;;;15.60;70.30;;;;;;5036202;28;20200;-89
2022/05/26 07:14:44;;;;;;;9.50;1.92;;;15.50;67.70;;;;;;5036113;28;20681;-89
2022/05/26 07:17:10;;;;;;;8.17;2.73;;;15.70;68.80;;;;;;5036306;28;20179;-89
2022/05/26 07:19:37;;;;;;;5.23;1.80;;;15.70;68.70;;;;;;5036058;28;20179;-88
2022/05/26 07:22:03;;;;;;;9.20;1.70;;;15.70;69.90;;;;;;5036004;28;20188;-89
2022/05/26 07:24:29;;;;;;;11.18;2.03;;;15.70;69.00;;;;;;5036182;28;20191;-90
2022/05/26 07:26:55;;;;;;;10.63;2.00;;;15.80;69.20;;;;;;5035773;28;20200;-89
2022/05/26 07:29:21;;;;;;;10.07;2.20;;;15.80;69.10;;;;;;5035888;28;20171;-90
2022/05/26 07:31:46;;;;;;;7.97;1.90;;;15.80;67.30;;;;;;5053876;28;20747;-88
2022/05/26 07:34:12;;;;;;;7.30;1.67;;;15.80;66.70;;;;;;5053549;28;20192;-89
2022/05/26 07:42:15;;;;;;;8.88;1.90;;;15.90;65.30;;;;;;5054113;28;20614;-89
2022/05/26 07:44:43;;;;;;;8.05;2.05;;;16.00;64.40;;;;;;5053513;28;20168;-89
2022/05/26 07:47:10;;;;;;;7.50;1.70;;;16.00;63.50;;;;;;5035538;28;20222;-88
2022/05/26 07:49:38;;;;;;;9.90;1.73;;;16.00;64.10;;;;;;5035583;28;20176;-89
2022/05/26 07:52:04;;;;;;;7.68;2.03;;;16.00;64.10;;;;;;5035527;28;20200;-88
2022/05/26 07:54:30;;;;;;;8.43;2.30;;;16.00;64.40;;;;;;5035401;28;20253;-88
2022/05/26 07:56:57;;;;;;;10.90;2.30;;;15.90;65.40;;;;;;5035576;28;20587;-89
2022/05/26 07:59:23;;;;;;;5.57;1.58;;;16.00;65.50;;;;;;5035674;28;20200;-88
2022/05/26 08:01:49;;;;;;;12.07;1.58;;;16.00;64.70;;;;;;5035472;28;20239;-90
2022/05/26 08:04:16;;;;;;;7.10;1.55;;;15.90;63.70;;;;;;5035298;28;20211;-89
2022/05/26 08:06:46;;;;;;;7.85;2.08;;;15.90;62.40;;;;;;5035359;28;20180;-89
2022/05/26 08:09:15;;;;;;;5.68;1.77;;;15.90;63.90;;;;;;5034811;28;20160;-89
2022/05/26 08:11:41;;;;;;;6.93;1.85;;;15.90;62.80;;;;;;5053200;28;20244;-89
2022/05/26 08:14:07;;;;;;;11.98;2.03;;;16.10;64.30;;;;;;5053122;28;20286;-89
2022/05/26 08:16:34;;;;;;;6.10;1.77;;;16.20;64.90;;;;;;5053035;28;20253;-89
2022/05/26 08:18:59;;;;;;;24.00;2.65;;;16.30;65.50;;;;;;5035237;28;20172;-89
2022/05/26 08:21:25;;;;;;;8.77;2.40;;;16.50;64.60;;;;;;5053177;28;20542;-89
2022/05/26 08:23:52;;;;;;;10.95;1.85;;;16.40;66.00;;;;;;5035400;28;20229;-89
2022/05/26 08:26:18;;;;;;;11.43;2.28;;;16.40;64.60;;;;;;5035286;28;20223;-89
2022/05/26 08:28:43;;;;;;;18.08;2.05;;;16.30;65.10;;;;;;5053213;28;20241;-90
2022/05/26 08:31:10;;;;;;;12.85;2.05;;;16.40;65.10;;;;;;5035125;28;20263;-89
2022/05/26 08:33:37;;;;;;;9.15;2.15;;;16.20;64.90;;;;;;5052809;28;20192;-91
2022/05/26 08:36:20;;;;;;;4.95;1.40;;;16.30;65.10;;;;;;5035405;28;20173;-89
2022/05/26 08:38:46;;;;;;;8.77;2.05;;;16.30;66.00;;;;;;5035238;28;20168;-89
2022/05/26 08:41:21;;;;;;;10.23;2.47;;;16.20;65.90;;;;;;5035159;28;20168;-89
2022/05/26 08:44:03;;;;;;;6.88;1.67;;;16.20;66.10;;;;;;5035057;28;20177;-89
2022/05/26 08:46:47;;;;;;;7.35;2.13;;;16.10;66.20;;;;;;5053064;28;20161;-89
2022/05/26 08:49:28;;;;;;;11.32;1.80;;;16.20;66.20;;;;;;5035060;28;20175;-89
2022/05/26 08:52:12;;;;;;;7.57;2.78;;;16.20;66.50;;;;;;5052683;28;20627;-90
2022/05/26 08:55:09;;;;;;;6.93;1.60;;;16.30;66.40;;;;;;5052958;28;20184;-88
2022/05/26 08:58:04;;;;;;;8.27;1.65;;;16.40;65.00;;;;;;5022390;28;20180;-89
2022/05/26 09:00:30;;;;;;;6.63;1.70;;;16.40;63.20;;;;;;5034868;28;20215;-89
2022/05/26 09:02:59;;;;;;;10.32;1.83;;;16.40;62.30;;;;;;5052657;28;20678;-89
2022/05/26 09:05:25;;;;;;;5.20;1.27;;;16.50;61.60;;;;;;5052749;28;20172;-89
2022/05/26 09:13:31;;;;;;;7.82;1.73;;;16.50;60.40;;;;;;5052969;28;20203;-91
2022/05/26 09:15:59;;;;;;;7.60;1.88;;;16.70;61.10;;;;;;5034742;28;20176;-89
2022/05/26 09:18:25;;;;;;;6.60;1.60;;;17.00;61.30;;;;;;5035438;28;20180;-88
2022/05/26 09:20:51;;;;;;;9.73;1.90;;;17.40;62.10;;;;;;5034875;28;20178;-90
2022/05/26 09:23:23;;;;;;;9.30;1.55;;;17.30;60.50;;;;;;5038579;28;20198;-91
2022/05/26 09:26:07;;;;;;;8.38;1.73;;;17.40;60.60;;;;;;5039042;28;20603;-90
2022/05/26 09:28:46;;;;;;;7.70;1.40;;;17.30;59.60;;;;;;5038873;28;20168;-90
2022/05/26 09:31:21;;;;;;;6.38;1.83;;;17.30;58.60;;;;;;5039011;28;20275;-91
2022/05/26 09:34:08;;;;;;;10.35;1.80;;;17.00;58.50;;;;;;5038286;28;20249;-92
2022/05/26 09:36:54;;;;;;;13.85;2.40;;;16.90;59.20;;;;;;5038856;28;20176;-89
2022/05/26 09:39:34;;;;;;;7.40;1.70;;;17.00;59.50;;;;;;5038046;28;20226;-88
2022/05/26 09:42:01;;;;;;;10.00;1.75;;;17.20;61.20;;;;;;5055895;28;20211;-87
2022/05/26 09:45:01;;;;;;;13.57;1.73;;;17.30;61.30;;;;;;5038293;28;20184;-87
2022/05/26 09:47:37;;;;;;;9.32;1.50;;;17.40;61.60;;;;;;4996439;28;20184;-88
2022/05/26 09:50:07;;;;;;;5.55;1.75;;;17.40;59.80;;;;;;5055854;28;20255;-89
2022/05/26 09:52:44;;;;;;;8.25;1.48;;;17.30;58.90;;;;;;5055689;28;20196;-88
2022/05/26 09:55:15;;;;;;;16.08;3.00;;;17.50;61.20;;;;;;5037819;28;20176;-88
2022/05/26 09:57:42;;;;;;;7.30;1.52;;;17.80;58.40;;;;;;5055701;28;20179;-87
2022/05/26 10:00:36;;;;;;;5.68;1.60;;;18.00;60.80;;;;;;5037631;28;20180;-88
2022/05/26 10:03:17;;;;;;;11.30;1.85;;;18.60;61.50;;;;;;5035572;28;20225;-88
2022/05/26 10:06:04;;;;;;;6.90;1.52;;;18.70;57.30;;;;;;5038049;28;20160;-87
2022/05/26 10:08:43;;;;;;;5.13;1.13;;;18.00;57.50;;;;;;5038388;28;20573;-89
2022/05/26 10:11:39;;;;;;;5.40;1.48;;;17.70;59.20;;;;;;5037570;28;20160;-87
2022/05/26 10:14:31;;;;;;;7.03;1.65;;;17.80;60.70;;;;;;5055023;28;20215;-87
2022/05/26 10:17:05;;;;;;;6.05;1.17;;;17.90;60.80;;;;;;5037576;28;20197;-89
2022/05/26 10:19:53;;;;;;;13.80;2.05;;;17.90;58.20;;;;;;5037271;28;20164;-87
2022/05/26 10:22:35;;;;;;;24.35;2.22;;;17.60;58.60;;;;;;5055579;28;20631;-86
2022/05/26 10:25:45;;;;;;;11.30;1.30;;;17.70;58.40;;;;;;5055234;28;20188;-88
2022/05/26 10:28:42;;;;;;;6.05;1.27;;;18.20;59.40;;;;;;5034200;28;20199;-88
2022/05/26 10:31:26;;;;;;;5.28;1.40;;;18.10;57.60;;;;;;5036988;28;20175;-88
2022/05/26 10:34:03;;;;;;;7.65;1.60;;;17.90;57.50;;;;;;5054291;28;20192;-89
2022/05/26 10:36:31;;;;;;;5.13;1.45;;;17.80;58.90;;;;;;5036898;28;20168;-87
2022/05/26 10:39:17;;;;;;;3.05;1.27;;;18.00;57.40;;;;;;5054778;28;20574;-87
2022/05/26 10:41:47;;;;;;;6.88;1.33;;;18.20;57.10;;;;;;5054689;28;20188;-87
2022/05/26 10:44:32;;;;;;;9.90;1.55;;;18.30;56.60;;;;;;5036808;28;20217;-87
2022/05/26 10:47:07;;;;;;;6.70;1.60;;;18.10;55.10;;;;;;5054958;28;20164;-87
2022/05/26 10:49:45;;;;;;;8.25;1.27;;;18.10;54.70;;;;;;5054803;28;20156;-86
2022/05/26 10:52:40;;;;;;;6.28;1.65;;;17.70;55.20;;;;;;5036649;28;20195;-86
2022/05/26 10:55:11;;;;;;;4.30;1.05;;;17.70;58.00;;;;;;5027692;28;20215;-85
2022/05/26 10:57:57;;;;;;;5.28;1.15;;;17.60;57.00;;;;;;5036589;28;20164;-86
2022/05/26 11:00:29;;;;;;;5.43;1.17;;;17.60;57.60;;;;;;5036672;28;20168;-86
2022/05/26 11:03:02;;;;;;;6.30;1.63;;;17.60;55.70;;;;;;5036751;28;20561;-86
2022/05/26 11:05:30;;;;;;;7.40;1.50;;;17.70;55.80;;;;;;5036537;28;20200;-86
2022/05/26 11:08:04;;;;;;;12.15;2.17;;;17.80;55.50;;;;;;5036870;28;20187;-87
2022/05/26 11:10:46;;;;;;;7.65;1.52;;;17.80;55.10;;;;;;5055092;28;20621;-87
2022/05/26 11:13:20;;;;;;;5.43;1.75;;;17.70;55.60;;;;;;5036315;28;20203;-88
2022/05/26 11:19:29;;;;;;;8.32;1.55;;;18.00;59.40;;;;;;5054793;28;20302;-86
2022/05/26 11:21:55;;;;;;;6.22;1.48;;;18.30;57.10;;;;;;5023231;28;20215;-86
2022/05/26 11:24:24;;;;;;;7.25;2.30;;;18.60;57.50;;;;;;5036321;28;20545;-86
2022/05/26 11:27:01;;;;;;;6.70;1.40;;;18.80;57.90;;;;;;5035941;28;20256;-86
2022/05/26 11:29:44;;;;;;;6.07;1.60;;;18.90;57.40;;;;;;5036125;28;20172;-87
2022/05/26 11:37:54;;;;;;;5.85;1.35;;;18.30;54.90;;;;;;5054955;28;20187;-87
2022/05/26 11:40:30;;;;;;;6.32;1.20;;;18.30;56.80;;;;;;5036190;28;20160;-88
2022/05/26 11:42:58;;;;;;;5.28;1.50;;;18.30;55.90;;;;;;5035964;28;20662;-89
2022/05/26 11:45:27;;;;;;;6.03;1.23;;;18.50;56.60;;;;;;5052988;28;20175;-87
2022/05/26 11:47:59;;;;;;;10.48;1.75;;;18.80;56.30;;;;;;5053679;28;20168;-87
2022/05/26 11:50:28;;;;;;;7.80;1.30;;;18.90;56.50;;;;;;5053625;28;20152;-86
2022/05/26 11:52:53;;;;;;;3.92;1.25;;;18.90;55.60;;;;;;5035720;28;20188;-87
2022/05/26 11:55:45;;;;;;;7.47;1.10;;;18.80;55.20;;;;;;5035787;28;20168;-88
2022/05/26 11:58:32;;;;;;;4.45;1.10;;;19.00;57.00;;;;;;5054067;28;20222;-87
2022/05/26 12:01:22;;;;;;;5.13;1.40;;;18.90;56.10;;;;;;5036094;28;20261;-87
2022/05/26 12:03:53;;;;;;;9.38;1.67;;;18.80;56.00;;;;;;5036046;28;20172;-87
2022/05/26 12:06:37;;;;;;;7.80;1.45;;;18.70;55.70;;;;;;5036032;28;20168;-87
2022/05/26 12:09:04;;;;;;;8.02;1.52;;;18.50;57.60;;;;;;5053981;28;20174;-87
2022/05/26 12:11:49;;;;;;;11.30;1.92;;;18.50;58.20;;;;;;5035691;28;20642;-86
2022/05/26 12:14:31;;;;;;;2.90;1.08;;;18.50;57.50;;;;;;5035530;28;20211;-87
2022/05/26 12:17:28;;;;;;;4.47;1.13;;;18.40;57.40;;;;;;5053620;28;20206;-88
2022/05/26 12:19:54;;;;;;;7.45;1.65;;;18.20;57.60;;;;;;5035733;28;20214;-87
2022/05/26 12:22:22;;;;;;;9.63;1.95;;;18.00;59.40;;;;;;5053568;28;20188;-87
2022/05/26 12:25:10;;;;;;;10.95;1.70;;;17.80;59.10;;;;;;5035918;28;20237;-85
2022/05/26 12:27:55;;;;;;;3.25;1.58;;;17.50;60.30;;;;;;5026065;28;20226;-90
2022/05/26 12:30:46;;;;;;;11.73;1.60;;;17.30;60.00;;;;;;5054102;28;20241;-87
2022/05/26 12:33:20;;;;;;;7.60;1.40;;;17.30;61.30;;;;;;5035343;28;20215;-87
2022/05/26 12:36:10;;;;;;;12.10;2.40;;;17.60;61.30;;;;;;5035700;28;20167;-87
2022/05/26 12:39:00;;;;;;;8.45;1.38;;;17.80;61.10;;;;;;5053588;28;20165;-86
2022/05/26 12:41:51;;;;;;;12.35;2.05;;;17.80;60.30;;;;;;5053661;28;20161;-87
2022/05/26 12:44:44;;;;;;;3.67;1.20;;;18.10;61.10;;;;;;5053276;28;20188;-87
2022/05/26 12:48:03;;;;;;;6.90;1.40;;;18.20;61.00;;;;;;5035438;28;20215;-87
2022/05/26 12:50:31;;;;;;;3.60;1.10;;;17.90;59.00;;;;;;4956146;28;20178;-86
2022/05/26 12:52:57;;;;;;;9.63;1.83;;;17.80;60.20;;;;;;5046552;28;20262;-86
2022/05/26 12:55:58;;;;;;;6.10;1.67;;;17.70;59.80;;;;;;5035746;28;20180;-87
2022/05/26 12:58:39;;;;;;;7.22;1.15;;;17.70;60.70;;;;;;5025200;28;20191;-86
2022/05/26 13:01:11;;;;;;;6.10;1.25;;;18.00;61.40;;;;;;5038981;28;20172;-86
2022/05/26 13:03:39;;;;;;;10.68;2.05;;;18.40;59.40;;;;;;5038538;28;20717;-86
2022/05/26 13:06:11;;;;;;;9.57;1.40;;;18.50;58.40;;;;;;5056856;28;20211;-86
2022/05/26 13:08:40;;;;;;;10.02;1.85;;;18.70;58.20;;;;;;5039045;28;20230;-86
2022/05/26 13:11:10;;;;;;;6.50;1.63;;;18.50;57.80;;;;;;5056383;28;20184;-86
2022/05/26 13:13:49;;;;;;;10.90;2.13;;;18.30;58.70;;;;;;5038416;28;20214;-86
2022/05/26 13:16:31;;;;;;;9.27;1.73;;;18.10;58.40;;;;;;5038432;28;20532;-86
2022/05/26 13:19:24;;;;;;;5.85;1.20;;;17.90;59.80;;;;;;5038415;28;20168;-86
2022/05/26 13:21:52;;;;;;;5.97;1.33;;;17.80;59.90;;;;;;5056396;28;20657;-86
2022/05/26 13:24:23;;;;;;;5.45;1.48;;;17.90;59.60;;;;;;5038332;28;20180;-86
2022/05/26 13:27:12;;;;;;;10.07;1.55;;;18.20;59.00;;;;;;5056226;28;20184;-87
2022/05/26 13:29:44;;;;;;;11.65;1.73;;;18.30;58.10;;;;;;5045801;28;20237;-87
2022/05/26 13:34:57;;;;;;;6.28;1.70;;;18.40;58.00;;;;;;5056338;28;20195;-85
2022/05/26 13:37:24;;;;;;;6.97;2.10;;;18.30;58.10;;;;;;5056187;28;20172;-85
2022/05/26 13:40:10;;;;;;;6.47;1.52;;;18.20;57.70;;;;;;5056303;28;20168;-86
2022/05/26 13:42:38;;;;;;;6.38;1.40;;;18.10;59.30;;;;;;5038008;28;20200;-88
2022/05/26 13:45:08;;;;;;;5.68;1.52;;;18.00;59.00;;;;;;5038403;28;20176;-86
2022/05/26 13:47:33;;;;;;;4.05;1.50;;;17.80;59.30;;;;;;5056221;28;20606;-86
2022/05/26 13:50:06;;;;;;;5.80;1.38;;;17.70;59.40;;;;;;5039689;28;20201;-88